createdAt,value
2023-03-05T00:00:10.621Z,31.08
2023-03-05T00:02:13.894Z,33.00
2023-03-05T00:04:16.645Z,33.70
2023-03-05T00:06:19.430Z,34.45
2023-03-05T00:08:22.067Z,31.73
2023-03-05T00:10:24.705Z,36.35
2023-03-05T00:12:27.391Z,30.30
2023-03-05T00:14:30.120Z,27.13
2023-03-05T00:16:34.700Z,35.50
2023-03-05T00:18:38.380Z,33.28
2023-03-05T00:20:41.013Z,32.38
2023-03-05T00:22:43.804Z,34.22
2023-03-05T00:24:46.529Z,30.77
2023-03-05T00:26:49.707Z,36.78
2023-03-05T00:28:52.737Z,32.13
2023-03-05T00:30:55.594Z,28.45
2023-03-05T00:32:59.760Z,30.50
2023-03-05T00:35:02.421Z,28.17
2023-03-05T00:37:05.178Z,29.27
2023-03-05T00:39:07.973Z,32.50
2023-03-05T00:41:10.662Z,33.55
2023-03-05T00:43:13.363Z,30.23
2023-03-05T00:45:16.071Z,34.28
2023-03-05T00:47:19.230Z,31.52
2023-03-05T00:49:23.219Z,32.20
2023-03-05T00:51:26.252Z,31.83
2023-03-05T00:53:28.898Z,30.58
2023-03-05T00:55:31.546Z,31.45
2023-03-05T00:57:35.248Z,32.60
2023-03-05T00:59:38.037Z,31.92
2023-03-05T01:01:41.391Z,29.77
2023-03-05T01:03:44.223Z,34.95
2023-03-05T01:05:48.232Z,33.33
2023-03-05T01:07:53.549Z,26.92
2023-03-05T01:09:56.224Z,33.42
2023-03-05T01:12:00.002Z,38.50
2023-03-05T01:14:02.792Z,28.42
2023-03-05T01:16:06.351Z,29.00
2023-03-05T01:18:09.102Z,32.08
2023-03-05T01:20:14.950Z,36.15
2023-03-05T01:22:18.973Z,33.47
2023-03-05T01:24:21.739Z,29.02
2023-03-05T01:26:24.366Z,38.45
2023-03-05T01:28:27.912Z,34.70
2023-03-05T01:30:30.653Z,30.80
2023-03-05T01:32:34.766Z,33.50
2023-03-05T01:34:38.792Z,34.88
2023-03-05T01:36:42.094Z,29.40
2023-03-05T01:38:48.300Z,31.90
2023-03-05T01:40:50.935Z,31.30
2023-03-05T01:42:59.480Z,30.70
2023-03-05T01:45:07.389Z,32.60
2023-03-05T01:47:10.078Z,33.88
2023-03-05T01:49:18.656Z,37.33
2023-03-05T01:51:25.736Z,34.55
2023-03-05T01:53:28.604Z,38.05
2023-03-05T01:55:34.419Z,34.38
2023-03-05T01:57:41.005Z,34.65
2023-03-05T01:59:46.324Z,41.92
2023-03-05T02:01:52.874Z,35.40
2023-03-05T02:03:55.708Z,34.05
2023-03-05T02:05:58.374Z,34.70
2023-03-05T02:08:02.231Z,31.60
2023-03-05T02:10:16.474Z,35.45
2023-03-05T02:12:20.948Z,30.30
2023-03-05T02:14:24.393Z,40.58
2023-03-05T02:16:27.238Z,30.85
2023-03-05T02:18:29.993Z,32.72
2023-03-05T02:20:45.400Z,34.55
2023-03-05T02:22:49.349Z,36.20
2023-03-05T02:24:52.335Z,37.58
2023-03-05T02:26:55.242Z,28.25
2023-03-05T02:29:00.828Z,36.25
2023-03-05T02:31:03.536Z,34.63
2023-03-05T02:33:06.493Z,30.75
2023-03-05T02:35:09.882Z,33.40
2023-03-05T02:37:12.785Z,32.85
2023-03-05T02:39:16.812Z,29.83
2023-03-05T02:41:19.857Z,32.65
2023-03-05T02:43:22.523Z,34.20
2023-03-05T02:45:25.224Z,29.90
2023-03-05T02:47:28.229Z,37.17
2023-03-05T02:49:31.117Z,35.95
2023-03-05T02:51:33.771Z,31.00
2023-03-05T02:53:36.927Z,32.92
2023-03-05T02:55:40.896Z,40.00
2023-03-05T02:57:43.583Z,32.25
2023-03-05T02:59:47.010Z,31.85
2023-03-05T03:01:49.719Z,31.70
2023-03-05T03:03:52.476Z,33.53
2023-03-05T03:05:55.083Z,34.72
2023-03-05T03:07:57.812Z,35.40
2023-03-05T03:10:00.444Z,35.85
2023-03-05T03:12:04.871Z,30.95
2023-03-05T03:14:07.529Z,38.13
2023-03-05T03:16:12.533Z,33.45
2023-03-05T03:18:15.233Z,34.65
2023-03-05T03:20:19.990Z,32.72
2023-03-05T03:22:22.685Z,38.53
2023-03-05T03:24:25.407Z,37.75
2023-03-05T03:26:28.264Z,36.85
2023-03-05T03:28:32.242Z,38.90
2023-03-05T03:30:34.939Z,33.28
2023-03-05T03:32:37.578Z,39.10
2023-03-05T03:34:40.315Z,34.00
2023-03-05T03:36:43.587Z,35.05
2023-03-05T03:38:46.296Z,36.70
2023-03-05T03:40:48.877Z,34.83
2023-03-05T03:42:52.781Z,38.33
2023-03-05T03:44:57.034Z,32.17
2023-03-05T03:46:59.656Z,36.90
2023-03-05T03:49:02.297Z,40.65
2023-03-05T03:51:07.117Z,36.60
2023-03-05T03:53:14.040Z,37.28
2023-03-05T03:57:19.223Z,39.25
2023-03-05T03:59:21.859Z,39.67
2023-03-05T04:01:25.917Z,40.90
2023-03-05T04:03:28.545Z,35.63
2023-03-05T04:05:31.348Z,35.15
2023-03-05T04:07:33.993Z,36.50
2023-03-05T04:09:36.614Z,37.05
2023-03-05T04:11:39.594Z,34.40
2023-03-05T04:13:42.359Z,33.38
2023-03-05T04:15:45.490Z,42.13
2023-03-05T04:17:49.552Z,36.45
2023-03-05T04:19:52.206Z,39.53
2023-03-05T04:21:54.835Z,34.90
2023-03-05T04:23:57.601Z,29.98
2023-03-05T04:26:00.308Z,31.50
2023-03-05T04:28:02.974Z,28.13
2023-03-05T04:30:06.738Z,37.03
2023-03-05T04:32:09.504Z,36.40
2023-03-05T04:34:13.542Z,28.98
2023-03-05T04:36:16.228Z,33.28
2023-03-05T04:38:18.838Z,29.73
2023-03-05T04:40:21.957Z,29.42
2023-03-05T04:42:24.890Z,30.35
2023-03-05T04:44:27.511Z,28.67
2023-03-05T04:46:30.159Z,29.13
2023-03-05T04:48:32.857Z,28.00
2023-03-05T04:50:36.782Z,27.70
2023-03-05T04:52:40.964Z,29.33
2023-03-05T04:54:45.227Z,25.50
2023-03-05T04:56:47.903Z,27.58
2023-03-05T04:58:50.533Z,22.77
2023-03-05T05:00:53.137Z,28.85
2023-03-05T05:02:55.949Z,30.30
2023-03-05T05:04:58.530Z,27.85
2023-03-05T05:07:02.769Z,26.63
2023-03-05T05:09:05.484Z,32.92
2023-03-05T05:11:09.290Z,19.80
2023-03-05T05:13:11.921Z,28.02
2023-03-05T05:15:15.035Z,23.23
2023-03-05T05:17:17.662Z,24.55
2023-03-05T05:19:21.599Z,22.55
2023-03-05T05:21:25.832Z,29.70
2023-03-05T05:23:29.856Z,25.00
2023-03-05T05:25:32.513Z,24.15
2023-03-05T05:27:35.162Z,23.58
2023-03-05T05:29:37.791Z,19.60
2023-03-05T05:31:40.469Z,23.27
2023-03-05T05:33:42.248Z,25.20
2023-03-05T05:35:44.861Z,24.20
2023-03-05T05:37:47.481Z,21.60
2023-03-05T05:39:51.445Z,25.15
2023-03-05T05:41:54.569Z,25.45
2023-03-05T05:43:57.214Z,24.13
2023-03-05T05:46:01.419Z,21.50
2023-03-05T05:48:04.249Z,24.20
2023-03-05T05:50:07.788Z,19.85
2023-03-05T05:52:10.785Z,22.17
2023-03-05T05:54:14.622Z,25.25
2023-03-05T05:56:19.540Z,23.67
2023-03-05T05:58:22.180Z,23.10
2023-03-05T06:00:25.214Z,22.95
2023-03-05T06:02:28.055Z,24.65
2023-03-05T06:04:30.812Z,24.65
2023-03-05T06:06:34.992Z,24.23
2023-03-05T06:08:37.633Z,23.58
2023-03-05T06:10:40.301Z,23.95
2023-03-05T06:12:44.289Z,24.02
2023-03-05T06:14:46.938Z,21.00
2023-03-05T06:16:49.685Z,21.05
2023-03-05T06:18:52.774Z,20.77
2023-03-05T06:20:56.258Z,27.58
2023-03-05T06:22:58.797Z,24.95
2023-03-05T06:25:01.567Z,27.10
2023-03-05T06:27:04.762Z,26.08
2023-03-05T06:29:08.702Z,25.88
2023-03-05T06:31:13.862Z,24.83
2023-03-05T06:33:16.604Z,24.90
2023-03-05T06:35:19.921Z,28.73
2023-03-05T06:37:22.651Z,28.23
2023-03-05T06:39:25.212Z,30.83
2023-03-05T06:41:29.693Z,22.42
2023-03-05T06:43:33.382Z,30.73
2023-03-05T06:45:37.386Z,26.05
2023-03-05T06:47:40.089Z,29.95
2023-03-05T06:49:42.684Z,24.48
2023-03-05T06:51:45.364Z,27.02
2023-03-05T06:53:49.620Z,25.23
2023-03-05T06:55:52.518Z,20.98
2023-03-05T06:57:55.189Z,28.13
2023-03-05T06:59:58.118Z,27.08
2023-03-05T07:02:02.185Z,29.77
2023-03-05T07:04:06.722Z,27.83
2023-03-05T07:06:11.479Z,26.23
2023-03-05T07:08:14.077Z,25.77
2023-03-05T07:10:16.744Z,23.42
2023-03-05T07:12:19.376Z,26.95
2023-03-05T07:14:23.237Z,28.50
2023-03-05T07:16:28.997Z,25.35
2023-03-05T07:18:32.969Z,30.30
2023-03-05T07:20:36.149Z,32.42
2023-03-05T07:22:39.125Z,29.38
2023-03-05T07:24:41.823Z,24.52
2023-03-05T07:26:44.471Z,25.73
2023-03-05T07:28:47.784Z,24.52
2023-03-05T07:30:57.037Z,23.92
2023-03-05T07:32:59.646Z,24.80
2023-03-05T07:35:03.797Z,26.27
2023-03-05T07:37:06.600Z,22.85
2023-03-05T07:39:09.556Z,23.77
2023-03-05T07:41:14.255Z,26.60
2023-03-05T07:43:17.530Z,26.15
2023-03-05T07:45:20.189Z,22.85
2023-03-05T07:47:23.257Z,25.27
2023-03-05T07:49:25.867Z,25.27
2023-03-05T07:51:30.102Z,23.80
2023-03-05T07:53:32.884Z,25.42
2023-03-05T07:55:35.981Z,22.77
2023-03-05T07:57:39.036Z,23.90
2023-03-05T07:59:43.040Z,22.02
2023-03-05T08:01:46.338Z,22.25
2023-03-05T08:03:49.022Z,24.58
2023-03-05T08:05:51.692Z,26.80
2023-03-05T08:07:55.685Z,22.55
2023-03-05T08:09:58.323Z,22.10
2023-03-05T08:12:00.960Z,25.63
2023-03-05T08:14:04.509Z,18.30
2023-03-05T08:16:08.552Z,20.05
2023-03-05T08:18:11.238Z,23.33
2023-03-05T08:20:14.516Z,21.63
2023-03-05T08:22:20.360Z,18.55
2023-03-05T08:24:29.351Z,20.83
2023-03-05T08:26:34.174Z,21.20
2023-03-05T08:28:36.790Z,23.48
2023-03-05T08:30:41.759Z,22.48
2023-03-05T08:32:44.455Z,22.08
2023-03-05T08:34:47.844Z,21.67
2023-03-05T08:36:50.582Z,21.90
2023-03-05T08:38:53.975Z,20.63
2023-03-05T08:40:57.948Z,21.65
2023-03-05T08:43:00.951Z,23.08
2023-03-05T08:45:03.625Z,24.00
2023-03-05T08:47:06.440Z,20.35
2023-03-05T08:49:09.065Z,20.55
2023-03-05T08:51:14.397Z,19.98
2023-03-05T08:53:17.079Z,23.25
2023-03-05T08:55:19.901Z,21.80
2023-03-05T08:57:23.799Z,20.63
2023-03-05T08:59:26.414Z,22.67
2023-03-05T09:01:30.531Z,20.98
2023-03-05T09:03:33.325Z,23.00
2023-03-05T09:05:39.027Z,19.35
2023-03-05T09:07:41.821Z,18.58
2023-03-05T09:09:44.451Z,24.55
2023-03-05T09:11:47.047Z,16.38
2023-03-05T09:13:51.054Z,19.50
2023-03-05T09:15:57.244Z,19.55
2023-03-05T09:18:00.053Z,21.38
2023-03-05T09:20:02.966Z,21.42
2023-03-05T09:22:05.775Z,20.00
2023-03-05T09:24:09.023Z,19.50
2023-03-05T09:26:13.303Z,20.08
2023-03-05T09:28:16.157Z,18.00
2023-03-05T09:30:20.699Z,20.55
2023-03-05T09:32:23.285Z,20.38
2023-03-05T09:34:26.002Z,22.20
2023-03-05T09:36:30.753Z,22.63
2023-03-05T09:38:33.744Z,24.70
2023-03-05T09:40:44.784Z,22.65
2023-03-05T09:43:02.330Z,22.92
2023-03-05T09:45:18.952Z,25.38
2023-03-05T09:47:38.784Z,20.33
2023-03-05T09:49:51.825Z,18.13
2023-03-05T09:52:01.302Z,20.27
2023-03-05T09:54:07.433Z,18.92
2023-03-05T09:56:13.383Z,18.60
2023-03-05T09:58:19.572Z,21.35
2023-03-05T10:00:31.319Z,20.17
2023-03-05T10:02:37.807Z,21.88
2023-03-05T10:04:46.484Z,19.70
2023-03-05T10:06:53.981Z,22.85
2023-03-05T10:08:58.718Z,22.42
2023-03-05T10:11:07.449Z,18.80
2023-03-05T10:13:17.615Z,23.08
2023-03-05T10:15:26.686Z,24.73
2023-03-05T10:17:59.838Z,22.05
2023-03-05T10:20:23.640Z,24.17
2023-03-05T10:22:30.297Z,21.98
2023-03-05T10:24:49.251Z,20.88
2023-03-05T10:27:00.417Z,27.15
2023-03-05T10:29:17.429Z,23.38
2023-03-05T10:31:38.061Z,21.73
2023-03-05T10:33:52.326Z,23.92
2023-03-05T10:36:26.608Z,22.08
2023-03-05T10:38:52.131Z,22.35
2023-03-05T10:40:56.610Z,21.52
2023-03-05T10:43:07.022Z,24.63
2023-03-05T10:45:16.694Z,23.90
2023-03-05T10:47:25.263Z,25.15
2023-03-05T10:49:31.717Z,25.92
2023-03-05T10:51:39.166Z,27.05
2023-03-05T10:53:51.740Z,20.08
2023-03-05T10:55:56.434Z,21.70
2023-03-05T10:57:59.163Z,22.02
2023-03-05T11:00:17.547Z,23.50
2023-03-05T11:02:22.311Z,26.60
2023-03-05T11:04:32.145Z,24.42
2023-03-05T11:06:39.681Z,27.77
2023-03-05T11:08:43.101Z,24.17
2023-03-05T11:10:45.740Z,24.73
2023-03-05T11:12:48.382Z,21.05
2023-03-05T11:15:05.483Z,22.52
2023-03-05T11:17:31.218Z,21.17
2023-03-05T11:19:35.352Z,22.30
2023-03-05T11:21:38.045Z,22.85
2023-03-05T11:23:40.609Z,23.67
2023-03-05T11:25:54.328Z,20.20
2023-03-05T11:27:59.013Z,22.10
2023-03-05T11:30:01.922Z,25.83
2023-03-05T11:32:17.819Z,23.98
2023-03-05T11:34:30.200Z,20.13
2023-03-05T11:36:35.853Z,21.17
2023-03-05T11:38:48.013Z,23.95
2023-03-05T11:40:51.067Z,20.35
2023-03-05T11:42:57.013Z,24.02
2023-03-05T11:45:00.882Z,22.60
2023-03-05T11:47:08.138Z,24.50
2023-03-05T11:49:16.660Z,22.77
2023-03-05T11:51:24.205Z,20.90
2023-03-05T11:53:29.593Z,22.88
2023-03-05T11:55:37.386Z,23.92
2023-03-05T11:57:47.199Z,27.75
2023-03-05T11:59:51.216Z,28.35
2023-03-05T12:01:56.328Z,24.48
2023-03-05T12:04:00.165Z,25.20
2023-03-05T12:06:10.918Z,23.98
2023-03-05T12:08:16.535Z,26.27
2023-03-05T12:10:23.788Z,28.13
2023-03-05T12:12:38.050Z,25.38
2023-03-05T12:14:49.342Z,29.75
2023-03-05T12:16:59.372Z,23.65
2023-03-05T12:19:21.126Z,29.02
2023-03-05T12:21:32.885Z,23.23
2023-03-05T12:23:50.271Z,25.90
2023-03-05T12:25:57.001Z,24.17
2023-03-05T12:28:00.104Z,26.65
2023-03-05T12:30:04.085Z,26.10
2023-03-05T12:32:28.806Z,25.33
2023-03-05T12:34:52.231Z,25.98
2023-03-05T12:36:55.009Z,26.65
2023-03-05T12:38:58.542Z,23.90
2023-03-05T12:41:44.295Z,22.52
2023-03-05T12:44:25.909Z,27.27
2023-03-05T12:46:30.088Z,22.95
2023-03-05T12:48:50.521Z,23.00
2023-03-05T12:50:59.467Z,25.13
2023-03-05T12:53:13.742Z,21.27
2023-03-05T12:55:20.207Z,20.38
2023-03-05T12:57:26.455Z,29.48
2023-03-05T12:59:44.066Z,19.15
2023-03-05T13:01:53.448Z,24.63
2023-03-05T13:03:59.593Z,24.27
2023-03-05T13:06:04.859Z,22.63
2023-03-05T13:08:15.865Z,21.60
2023-03-05T13:10:23.829Z,22.95
2023-03-05T13:12:28.555Z,19.35
2023-03-05T13:14:36.290Z,23.23
2023-03-05T13:16:41.027Z,19.58
2023-03-05T13:18:49.183Z,21.80
2023-03-05T13:21:02.410Z,21.90
2023-03-05T13:23:26.767Z,26.20
2023-03-05T13:25:29.635Z,23.85
2023-03-05T13:27:34.025Z,22.55
2023-03-05T13:29:36.636Z,20.05
2023-03-05T13:31:43.499Z,22.00
2023-03-05T13:33:54.207Z,22.33
2023-03-05T13:35:57.286Z,21.80
2023-03-05T13:38:00.832Z,22.50
2023-03-05T13:40:16.081Z,21.90
2023-03-05T13:42:20.862Z,22.80
2023-03-05T13:44:23.472Z,20.25
2023-03-05T13:46:28.460Z,20.00
2023-03-05T13:48:31.110Z,21.50
2023-03-05T13:50:37.375Z,22.60
2023-03-05T13:52:40.209Z,20.58
2023-03-05T13:54:43.396Z,24.85
2023-03-05T13:56:54.775Z,21.67
2023-03-05T13:58:57.981Z,20.55
2023-03-05T14:01:05.342Z,18.67
2023-03-05T14:03:12.336Z,21.95
2023-03-05T14:05:16.514Z,19.08
2023-03-05T14:07:30.806Z,22.75
2023-03-05T14:09:46.847Z,17.63
2023-03-05T14:11:57.957Z,21.00
2023-03-05T14:14:07.063Z,21.90
2023-03-05T14:16:12.006Z,22.77
2023-03-05T14:18:20.518Z,20.25
2023-03-05T14:20:27.352Z,19.75
2023-03-05T14:24:35.299Z,17.33
2023-03-05T14:26:42.098Z,18.92
2023-03-05T14:28:44.862Z,18.45
2023-03-05T14:30:48.378Z,17.38
2023-03-05T14:32:52.717Z,20.75
2023-03-05T14:34:58.257Z,21.05
2023-03-05T14:37:04.519Z,18.75
2023-03-05T14:39:08.858Z,19.52
2023-03-05T14:41:23.739Z,19.60
2023-03-05T14:43:26.388Z,23.00
2023-03-05T14:45:31.095Z,17.73
2023-03-05T14:47:33.781Z,19.48
2023-03-05T14:49:36.468Z,19.42
2023-03-05T14:51:41.763Z,18.63
2023-03-05T14:53:47.580Z,23.55
2023-03-05T14:55:56.585Z,20.55
2023-03-05T14:58:04.195Z,19.67
2023-03-05T15:00:11.933Z,22.00
2023-03-05T15:02:18.806Z,16.63
2023-03-05T15:06:31.720Z,21.05
2023-03-05T15:08:34.622Z,20.77
2023-03-05T15:10:37.264Z,21.17
2023-03-05T15:12:41.766Z,17.88
2023-03-05T15:14:44.839Z,20.23
2023-03-05T15:16:48.742Z,20.88
2023-03-05T15:18:51.437Z,20.70
2023-03-05T15:20:54.759Z,19.45
2023-03-05T15:22:57.420Z,22.77
2023-03-05T15:25:00.019Z,22.20
2023-03-05T15:27:03.162Z,24.75
2023-03-05T15:29:07.181Z,23.10
2023-03-05T15:31:10.064Z,21.10
2023-03-05T15:33:15.682Z,23.17
2023-03-05T15:35:18.663Z,22.85
2023-03-05T15:37:21.346Z,20.83
2023-03-05T15:39:26.262Z,24.92
2023-03-05T15:41:28.961Z,21.33
2023-03-05T15:43:31.644Z,20.92
2023-03-05T15:45:35.657Z,20.73
2023-03-05T15:47:38.343Z,23.75
2023-03-05T15:49:40.897Z,21.35
2023-03-05T15:51:43.498Z,21.70
2023-03-05T15:53:46.449Z,20.95
2023-03-05T15:55:49.069Z,19.50
2023-03-05T15:57:53.692Z,22.08
2023-03-05T15:59:56.395Z,20.75
2023-03-05T16:02:01.716Z,20.45
2023-03-05T16:04:04.542Z,23.13
2023-03-05T16:06:08.271Z,18.70
2023-03-05T16:08:10.958Z,20.35
2023-03-05T16:10:17.562Z,16.05
2023-03-05T16:12:23.853Z,18.20
2023-03-05T16:14:28.685Z,18.60
2023-03-05T16:16:32.454Z,19.33
2023-03-05T16:18:39.750Z,18.92
2023-03-05T16:20:42.636Z,18.33
2023-03-05T16:22:46.341Z,17.65
2023-03-05T16:24:48.944Z,17.75
2023-03-05T16:26:51.556Z,16.95
2023-03-05T16:28:54.496Z,18.20
2023-03-05T16:30:59.206Z,17.25
2023-03-05T16:33:01.871Z,18.13
2023-03-05T16:35:07.036Z,15.52
2023-03-05T16:37:09.677Z,14.95
2023-03-05T16:39:12.373Z,14.32
2023-03-05T16:41:15.826Z,13.93
2023-03-05T16:43:18.488Z,15.60
2023-03-05T16:45:21.195Z,15.77
2023-03-05T16:47:23.806Z,16.25
2023-03-05T16:49:26.472Z,14.60
2023-03-05T16:51:30.962Z,15.88
2023-03-05T16:53:34.825Z,17.40
2023-03-05T16:55:39.124Z,15.40
2023-03-05T16:57:43.014Z,19.98
2023-03-05T16:59:46.505Z,17.55
2023-03-05T17:01:49.368Z,15.27
2023-03-05T17:03:53.819Z,14.93
2023-03-05T17:05:57.317Z,13.18
2023-03-05T17:08:02.248Z,19.08
2023-03-05T17:10:06.087Z,16.48
2023-03-05T17:12:09.882Z,17.30
2023-03-05T17:14:13.724Z,13.88
2023-03-05T17:16:19.711Z,12.80
2023-03-05T17:18:23.584Z,13.20
2023-03-05T17:20:26.482Z,12.93
2023-03-05T17:22:30.230Z,14.13
2023-03-05T17:24:35.241Z,15.80
2023-03-05T17:26:38.628Z,12.95
2023-03-05T17:28:53.571Z,11.15
2023-03-05T17:31:01.355Z,12.98
2023-03-05T17:35:08.910Z,10.15
2023-03-05T17:37:15.262Z,9.77
2023-03-05T17:39:23.241Z,12.65
2023-03-05T17:41:27.556Z,15.18
2023-03-05T17:43:30.436Z,15.07
2023-03-05T17:45:35.326Z,12.65
2023-03-05T17:47:38.179Z,14.88
2023-03-05T17:49:40.946Z,14.80
2023-03-05T17:51:43.742Z,13.38
2023-03-05T17:53:46.393Z,15.18
2023-03-05T17:55:49.038Z,15.23
2023-03-05T17:57:53.281Z,15.52
2023-03-05T17:59:55.977Z,15.85
2023-03-05T18:01:58.612Z,15.80
2023-03-05T18:04:02.226Z,16.98
2023-03-05T18:06:05.367Z,17.77
2023-03-05T18:08:08.224Z,14.80
2023-03-05T18:10:12.928Z,14.98
2023-03-05T18:12:15.681Z,17.25
2023-03-05T18:14:19.748Z,13.73
2023-03-05T18:16:23.443Z,19.17
2023-03-05T18:18:26.130Z,18.50
2023-03-05T18:20:31.460Z,20.67
2023-03-05T18:22:34.253Z,17.95
2023-03-05T18:24:36.981Z,19.65
2023-03-05T18:26:39.734Z,21.20
2023-03-05T18:28:42.405Z,22.85
2023-03-05T18:30:47.400Z,20.15
2023-03-05T18:32:51.307Z,19.30
2023-03-05T18:34:54.020Z,21.40
2023-03-05T18:36:56.812Z,20.50
2023-03-05T18:38:59.497Z,18.77
2023-03-05T18:41:04.186Z,20.02
2023-03-05T18:43:06.832Z,20.95
2023-03-05T18:45:10.730Z,19.85
2023-03-05T18:47:14.782Z,21.10
2023-03-05T18:49:17.467Z,21.88
2023-03-05T18:51:22.223Z,18.50
2023-03-05T18:53:24.991Z,21.88
2023-03-05T18:55:30.200Z,20.65
2023-03-05T18:57:32.924Z,18.67
2023-03-05T18:59:35.593Z,26.02
2023-03-05T19:01:38.347Z,20.90
2023-03-05T19:03:42.448Z,21.13
2023-03-05T19:05:45.135Z,24.52
2023-03-05T19:07:48.452Z,22.75
2023-03-05T19:09:58.130Z,22.33
2023-03-05T19:12:02.000Z,29.25
2023-03-05T19:14:04.688Z,23.85
2023-03-05T19:16:09.424Z,23.23
2023-03-05T19:18:13.184Z,22.88
2023-03-05T19:20:18.464Z,20.25
2023-03-05T19:22:21.375Z,24.30
2023-03-05T19:24:25.936Z,23.23
2023-03-05T19:26:28.646Z,26.88
2023-03-05T19:28:31.286Z,21.63
2023-03-05T19:30:33.938Z,24.42
2023-03-05T19:32:36.759Z,23.40
2023-03-05T19:34:39.659Z,22.25
2023-03-05T19:36:43.768Z,24.02
2023-03-05T19:38:47.937Z,26.20
2023-03-05T19:40:54.168Z,27.90
2023-03-05T19:42:57.854Z,26.05
2023-03-05T19:45:00.492Z,32.58
2023-03-05T19:47:03.221Z,27.20
2023-03-05T19:49:05.941Z,23.67
2023-03-05T19:51:13.296Z,25.05
2023-03-05T19:53:17.348Z,24.83
2023-03-05T19:55:20.256Z,28.42
2023-03-05T19:57:22.990Z,26.83
2023-03-05T19:59:25.964Z,25.02
2023-03-05T20:01:29.298Z,25.95
2023-03-05T20:03:32.325Z,26.55
2023-03-05T20:05:35.412Z,21.90
2023-03-05T20:07:38.127Z,27.00
2023-03-05T20:09:42.176Z,25.00
2023-03-05T20:11:46.049Z,25.73
2023-03-05T20:13:49.134Z,24.13
2023-03-05T20:15:54.493Z,23.98
2023-03-05T20:17:58.006Z,27.25
2023-03-05T20:20:00.972Z,26.38
2023-03-05T20:22:03.675Z,27.48
2023-03-05T20:24:09.899Z,24.58
2023-03-05T20:26:14.243Z,29.42
2023-03-05T20:28:17.068Z,34.53
2023-03-05T20:30:20.269Z,28.67
2023-03-05T20:32:23.083Z,24.00
2023-03-05T20:34:27.056Z,24.20
2023-03-05T20:36:29.782Z,23.38
2023-03-05T20:38:33.072Z,27.30
2023-03-05T20:40:35.758Z,28.45
2023-03-05T20:42:40.173Z,24.27
2023-03-05T20:44:43.148Z,28.10
2023-03-05T20:46:52.524Z,24.73
2023-03-05T20:48:59.075Z,29.20
2023-03-05T20:51:12.031Z,22.20
2023-03-05T20:53:14.954Z,23.98
2023-03-05T20:55:17.582Z,23.77
2023-03-05T20:57:20.243Z,25.88
2023-03-05T20:59:24.771Z,27.38
2023-03-05T21:01:28.919Z,24.48
2023-03-05T21:03:31.609Z,28.15
2023-03-05T21:05:36.082Z,21.98
2023-03-05T21:07:38.798Z,24.98
2023-03-05T21:09:41.464Z,21.38
2023-03-05T21:11:44.117Z,20.00
2023-03-05T21:13:47.062Z,26.73
2023-03-05T21:15:51.116Z,21.58
2023-03-05T21:17:54.316Z,21.77
2023-03-05T21:19:57.008Z,23.20
2023-03-05T21:22:00.034Z,26.48
2023-03-05T21:24:02.715Z,27.50
2023-03-05T21:26:05.571Z,28.95
2023-03-05T21:28:09.797Z,31.17
2023-03-05T21:30:13.393Z,44.25
2023-03-05T21:32:17.578Z,31.15
2023-03-05T21:34:20.368Z,33.08
2023-03-05T21:36:23.093Z,37.88
2023-03-05T21:38:29.791Z,32.45
2023-03-05T21:40:33.171Z,37.08
2023-03-05T21:42:35.771Z,29.70
2023-03-05T21:44:38.697Z,48.33
2023-03-05T21:46:42.713Z,29.80
2023-03-05T21:48:46.741Z,32.78
2023-03-05T21:50:49.924Z,25.42
2023-03-05T21:52:52.963Z,24.15
2023-03-05T21:54:55.746Z,27.75
2023-03-05T21:56:58.384Z,31.42
2023-03-05T21:59:03.066Z,25.48
2023-03-05T22:01:06.137Z,28.73
2023-03-05T22:03:08.888Z,29.85
2023-03-05T22:05:15.532Z,26.80
2023-03-05T22:07:19.237Z,28.92
2023-03-05T22:09:21.894Z,27.90
2023-03-05T22:11:24.548Z,25.80
2023-03-05T22:13:27.257Z,30.25
2023-03-05T22:15:30.166Z,25.30
2023-03-05T22:17:32.806Z,30.20
2023-03-05T22:19:35.590Z,31.00
2023-03-05T22:21:39.639Z,23.77
2023-03-05T22:23:42.253Z,30.80
2023-03-05T22:25:45.433Z,28.40
2023-03-05T22:27:48.066Z,28.30
2023-03-05T22:29:50.738Z,22.98
2023-03-05T22:31:55.378Z,28.30
2023-03-05T22:33:58.287Z,29.08
2023-03-05T22:36:01.184Z,28.98
2023-03-05T22:38:05.240Z,23.30
2023-03-05T22:40:09.276Z,22.27
2023-03-05T22:42:11.957Z,22.95
2023-03-05T22:44:14.676Z,24.23
2023-03-05T22:46:21.006Z,25.90
2023-03-05T22:48:23.686Z,26.08
2023-03-05T22:50:26.335Z,22.83
2023-03-05T22:52:29.393Z,23.77
2023-03-05T22:54:33.431Z,25.20
2023-03-05T22:56:37.171Z,26.25
2023-03-05T22:58:40.025Z,23.48
2023-03-05T23:00:42.809Z,25.60
2023-03-05T23:02:45.859Z,26.92
2023-03-05T23:04:49.956Z,33.45
2023-03-05T23:06:52.649Z,25.95
2023-03-05T23:08:55.707Z,28.50
2023-03-05T23:10:59.765Z,25.05
2023-03-05T23:13:02.832Z,24.63
2023-03-05T23:15:08.844Z,24.20
2023-03-05T23:17:11.572Z,25.60
2023-03-05T23:19:14.260Z,27.58
2023-03-05T23:21:16.980Z,27.58
2023-03-05T23:23:19.659Z,25.95
2023-03-05T23:25:23.736Z,26.27
2023-03-05T23:27:27.757Z,24.48
2023-03-05T23:29:32.973Z,25.00
2023-03-05T23:31:35.591Z,24.63
2023-03-05T23:33:38.376Z,25.65
2023-03-05T23:35:43.181Z,23.50
2023-03-05T23:37:46.075Z,21.25
2023-03-05T23:39:48.681Z,21.55
2023-03-05T23:41:51.312Z,29.35
2023-03-05T23:43:55.329Z,28.65
2023-03-05T23:45:58.265Z,25.98
2023-03-05T23:48:01.593Z,27.30
2023-03-05T23:50:04.782Z,24.38
2023-03-05T23:52:07.798Z,30.33
2023-03-05T23:54:10.495Z,29.90
2023-03-05T23:56:13.353Z,33.72
2023-03-05T23:58:17.388Z,28.58
